»·PEaware :: RPA7065 KPDX-KOTH

RPA7065 :: KPDX-KOTH

FLIGHT INFORMATION

Flight Status: Arrived
Operator: Republic Airlines
More flights by this operator :: More flights under this callsign
Pilot: Skye D. (10623)
Aircraft: SAAB 340
(SF34)
More flights by this aircraft type
Origin: KPDX Portland Intl
United States
Destination: KOTH North Bend Mun
United States
More flights between these airports :: More routes between these airports
Route: +PTLD1 UBG V287 OTH
File this flight plan on PilotEdge
Remarks:
Altitude:
(Current/Filed)
18,000ft
Speed:
(Current/Filed)
288kts
Departed: 15-Feb-18 12:51 PM
Arrived: 15-Feb-18 01:36 PM
Distance/Time
Traveled:
148nm/0:45
Distance/Time
To Go:
Arrived

Flight Plot

Page will automatically refresh every two minutes.

Flight plan parsing failed; only flown route is shown


Map Options




Map Legend


Flown Route
Filed Route
Departure Airport
Arrival Airport
Navaid (VOR, NDB)
Fix

Horizontal Profiles

Position Reports

Time Latitude Longitude Heading Altitude Ground
Speed
15-Feb-18 12:33 45.587040 -122.593108 39 34ft 0kts
15-Feb-18 12:34 45.587040 -122.593108 39 34ft 0kts
15-Feb-18 12:35 45.587040 -122.593108 39 34ft 0kts
15-Feb-18 12:36 45.587040 -122.593108 39 34ft 0kts
15-Feb-18 12:37 45.587040 -122.593108 39 34ft 0kts
15-Feb-18 12:38 45.587040 -122.593108 39 34ft 0kts
15-Feb-18 12:39 45.587040 -122.593108 39 34ft 0kts
15-Feb-18 12:40 45.587040 -122.593108 39 34ft 0kts
15-Feb-18 12:41 45.587040 -122.593108 39 34ft 0kts
15-Feb-18 12:42 45.587040 -122.593108 39 34ft 0kts
15-Feb-18 12:43 45.587040 -122.593108 39 34ft 0kts
15-Feb-18 12:44 45.587040 -122.593108 39 34ft 0kts
15-Feb-18 12:45 45.587040 -122.593108 39 34ft 0kts
15-Feb-18 12:46 45.586938 -122.593230 39 34ft 2kts
15-Feb-18 12:47 45.586547 -122.593759 65 34ft 2kts
15-Feb-18 12:48 45.586597 -122.594293 130 34ft 0kts
15-Feb-18 12:49 45.586597 -122.594293 130 34ft 0kts
15-Feb-18 12:50 45.586597 -122.594293 130 34ft 0kts
15-Feb-18 12:51 45.586597 -122.594293 130 34ft 0kts
15-Feb-18 12:52 45.586597 -122.594293 130 34ft 0kts
15-Feb-18 12:53 45.585688 -122.592796 129 34ft 8kts
15-Feb-18 12:54 45.583510 -122.588370 122 34ft 19kts
15-Feb-18 12:55 45.581501 -122.583613 170 34ft 3kts
15-Feb-18 12:56 45.581482 -122.583609 170 34ft 0kts
15-Feb-18 12:57 45.580787 -122.584262 252 34ft 13kts
15-Feb-18 12:58 45.586560 -122.599514 297 298ft 133kts
15-Feb-18 12:59 45.598979 -122.637716 290 2193ft 156kts
15-Feb-18 13:00 45.610299 -122.681133 296 3100ft 150kts
15-Feb-18 13:01 45.625313 -122.734934 295 5262ft 179kts
15-Feb-18 13:02 45.602473 -122.784429 215 7362ft 205kts
15-Feb-18 13:03 45.564671 -122.814088 215 8587ft 213kts
15-Feb-18 13:04 45.526432 -122.843999 215 10063ft 218kts
15-Feb-18 13:05 45.485569 -122.875719 216 11799ft 214kts
15-Feb-18 13:06 45.443822 -122.908162 217 13140ft 220kts
15-Feb-18 13:07 45.400149 -122.942007 217 14344ft 225kts
15-Feb-18 13:08 45.353595 -122.977877 217 15666ft 222kts
15-Feb-18 13:09 45.306018 -123.008327 214 17006ft 219kts
15-Feb-18 13:10 45.254328 -123.041147 215 18040ft 226kts
15-Feb-18 13:11 45.197649 -123.077177 214 18507ft 245kts
15-Feb-18 13:12 45.135827 -123.116251 213 18507ft 264kts
15-Feb-18 13:13 45.071355 -123.156832 213 18506ft 266kts
15-Feb-18 13:14 45.009788 -123.195552 213 18515ft 266kts
15-Feb-18 13:15 44.950005 -123.233074 213 18516ft 266kts
15-Feb-18 13:16 44.885074 -123.273672 214 18508ft 265kts
15-Feb-18 13:17 44.822611 -123.312731 214 18506ft 264kts
15-Feb-18 13:18 44.759109 -123.352311 214 18507ft 263kts
15-Feb-18 13:19 44.693592 -123.393050 214 18526ft 265kts
15-Feb-18 13:20 44.630641 -123.432083 214 18526ft 266kts
15-Feb-18 13:21 44.564978 -123.472697 214 18527ft 267kts
15-Feb-18 13:22 44.498736 -123.513572 214 18527ft 267kts
15-Feb-18 13:23 44.432160 -123.554550 214 18527ft 267kts
15-Feb-18 13:24 44.365211 -123.595656 214 18528ft 267kts
15-Feb-18 13:25 44.298317 -123.636618 214 18057ft 262kts
15-Feb-18 13:26 44.235016 -123.675724 213 16967ft 260kts
15-Feb-18 13:27 44.172707 -123.713860 212 15955ft 254kts
15-Feb-18 13:28 44.117227 -123.747734 211 14525ft 262kts
15-Feb-18 13:29 44.059154 -123.782908 211 13221ft 255kts
15-Feb-18 13:30 43.998630 -123.819567 210 13005ft 254kts
15-Feb-18 13:31 43.937751 -123.856349 210 13004ft 255kts
15-Feb-18 13:32 43.878898 -123.891824 210 12338ft 250kts
15-Feb-18 13:33 43.819706 -123.927426 209 10442ft 247kts
15-Feb-18 13:34 43.763521 -123.961086 208 8687ft 239kts
15-Feb-18 13:35 43.709112 -123.993728 208 6568ft 233kts
15-Feb-18 13:36 43.656152 -124.025355 208 6001ft 207kts
15-Feb-18 13:37 43.604186 -124.056384 208 5386ft 211kts
15-Feb-18 13:38 43.550530 -124.088378 206 3599ft 198kts
15-Feb-18 13:39 43.507150 -124.115742 211 3194ft 157kts
15-Feb-18 13:40 43.466246 -124.150110 220 2317ft 168kts
15-Feb-18 13:41 43.446224 -124.183814 242 1537ft 126kts
15-Feb-18 13:42 43.425727 -124.233621 243 257ft 119kts
15-Feb-18 13:43 43.417561 -124.251038 128 22ft 14kts
15-Feb-18 13:44 43.417032 -124.249203 108 22ft 5kts
15-Feb-18 13:45 43.416769 -124.249069 223 22ft 0kts
15-Feb-18 13:46 43.416769 -124.249069 223 22ft 0kts
15-Feb-18 13:47 43.416769 -124.249069 223 22ft 0kts

Navigation Log

Ident Type
Flight plan parsing failed, navigation log unavailable